sensor_id;sensor_type;location;lat;lon;timestamp;pressure;altitude;pressure_sealevel;temperature
78905;BMP280;68291;49.602;8.722;2023-05-19T00:00:38;100189.22;;;14.77
78905;BMP280;68291;49.602;8.722;2023-05-19T00:03:21;100195.41;;;14.74
78905;BMP280;68291;49.602;8.722;2023-05-19T00:06:38;100185.19;;;14.72
78905;BMP280;68291;49.602;8.722;2023-05-19T00:09:13;100182.59;;;14.72
78905;BMP280;68291;49.602;8.722;2023-05-19T00:11:58;100178.25;;;14.72
78905;BMP280;68291;49.602;8.722;2023-05-19T00:14:44;100179.03;;;14.74
78905;BMP280;68291;49.602;8.722;2023-05-19T00:17:20;100176.34;;;14.75
78905;BMP280;68291;49.602;8.722;2023-05-19T00:19:52;100172.06;;;14.74
78905;BMP280;68291;49.602;8.722;2023-05-19T00:22:51;100180.78;;;14.73
78905;BMP280;68291;49.602;8.722;2023-05-19T00:25:48;100183.50;;;14.71
78905;BMP280;68291;49.602;8.722;2023-05-19T00:28:50;100189.69;;;14.68
78905;BMP280;68291;49.602;8.722;2023-05-19T00:31:32;100184.56;;;14.67
78905;BMP280;68291;49.602;8.722;2023-05-19T00:34:14;100182.91;;;14.66
78905;BMP280;68291;49.602;8.722;2023-05-19T00:36:54;100176.97;;;14.64
78905;BMP280;68291;49.602;8.722;2023-05-19T00:39:45;100177.97;;;14.61
78905;BMP280;68291;49.602;8.722;2023-05-19T00:42:42;100183.31;;;14.58
78905;BMP280;68291;49.602;8.722;2023-05-19T00:45:39;100181.63;;;14.57
78905;BMP280;68291;49.602;8.722;2023-05-19T00:48:23;100177.38;;;14.56
78905;BMP280;68291;49.602;8.722;2023-05-19T00:51:05;100173.09;;;14.55
78905;BMP280;68291;49.602;8.722;2023-05-19T00:53:52;100179.28;;;14.53
78905;BMP280;68291;49.602;8.722;2023-05-19T00:56:27;100180.34;;;14.49
78905;BMP280;68291;49.602;8.722;2023-05-19T00:59:07;100166.72;;;14.45
78905;BMP280;68291;49.602;8.722;2023-05-19T01:02:04;100173.78;;;14.42
78905;BMP280;68291;49.602;8.722;2023-05-19T01:04:45;100165.44;;;14.37
78905;BMP280;68291;49.602;8.722;2023-05-19T01:07:40;100168.16;;;14.34
78905;BMP280;68291;49.602;8.722;2023-05-19T01:10:21;100154.44;;;14.32
78905;BMP280;68291;49.602;8.722;2023-05-19T01:13:10;100157.03;;;14.32
78905;BMP280;68291;49.602;8.722;2023-05-19T01:16:00;100157.94;;;14.31
78905;BMP280;68291;49.602;8.722;2023-05-19T01:19:00;100163.38;;;14.27
78905;BMP280;68291;49.602;8.722;2023-05-19T01:22:13;100159.25;;;14.23
78905;BMP280;68291;49.602;8.722;2023-05-19T01:28:56;100145.94;;;14.13
78905;BMP280;68291;49.602;8.722;2023-05-19T01:31:43;100145.94;;;14.13
78905;BMP280;68291;49.602;8.722;2023-05-19T01:34:43;100146.91;;;14.11
78905;BMP280;68291;49.602;8.722;2023-05-19T01:37:36;100152.16;;;14.09
78905;BMP280;68291;49.602;8.722;2023-05-19T01:40:11;100148.81;;;14.07
78905;BMP280;68291;49.602;8.722;2023-05-19T01:43:00;100152.28;;;14.06
78905;BMP280;68291;49.602;8.722;2023-05-19T01:45:40;100149.81;;;14.05
78905;BMP280;68291;49.602;8.722;2023-05-19T01:48:46;100152.63;;;14.01
78905;BMP280;68291;49.602;8.722;2023-05-19T01:51:42;100152.88;;;13.95
78905;BMP280;68291;49.602;8.722;2023-05-19T01:54:15;100150.34;;;13.93
78905;BMP280;68291;49.602;8.722;2023-05-19T01:57:08;100154.88;;;13.90
78905;BMP280;68291;49.602;8.722;2023-05-19T01:59:51;100157.44;;;13.90
78905;BMP280;68291;49.602;8.722;2023-05-19T02:02:37;100158.34;;;13.89
78905;BMP280;68291;49.602;8.722;2023-05-19T02:05:25;100155.91;;;13.86
78905;BMP280;68291;49.602;8.722;2023-05-19T02:08:12;100169.75;;;13.85
78905;BMP280;68291;49.602;8.722;2023-05-19T02:11:11;100165.66;;;13.81
78905;BMP280;68291;49.602;8.722;2023-05-19T02:14:01;100164.25;;;13.74
78905;BMP280;68291;49.602;8.722;2023-05-19T02:16:51;100166.31;;;13.68
78905;BMP280;68291;49.602;8.722;2023-05-19T02:19:36;100164.09;;;13.60
78905;BMP280;68291;49.602;8.722;2023-05-19T02:22:27;100166.13;;;13.54
78905;BMP280;68291;49.602;8.722;2023-05-19T02:25:04;100169.81;;;13.48
78905;BMP280;68291;49.602;8.722;2023-05-19T02:27:47;100171.03;;;13.41
78905;BMP280;68291;49.602;8.722;2023-05-19T02:30:38;100176.00;;;13.28
78905;BMP280;68291;49.602;8.722;2023-05-19T02:33:31;100175.50;;;13.20
78905;BMP280;68291;49.602;8.722;2023-05-19T02:36:16;100174.06;;;13.14
78905;BMP280;68291;49.602;8.722;2023-05-19T02:38:52;100172.63;;;13.07
78905;BMP280;68291;49.602;8.722;2023-05-19T02:41:34;100167.97;;;12.97
78905;BMP280;68291;49.602;8.722;2023-05-19T02:44:09;100168.13;;;12.93
78905;BMP280;68291;49.602;8.722;2023-05-19T02:46:47;100163.19;;;12.88
78905;BMP280;68291;49.602;8.722;2023-05-19T02:49:25;100166.75;;;12.86
78905;BMP280;68291;49.602;8.722;2023-05-19T02:52:11;100151.31;;;12.84
78905;BMP280;68291;49.602;8.722;2023-05-19T02:54:52;100159.19;;;12.81
78905;BMP280;68291;49.602;8.722;2023-05-19T02:57:49;100165.41;;;12.77
78905;BMP280;68291;49.602;8.722;2023-05-19T03:00:45;100161.16;;;12.75
78905;BMP280;68291;49.602;8.722;2023-05-19T03:03:20;100154.41;;;12.72
78905;BMP280;68291;49.602;8.722;2023-05-19T03:06:17;100152.00;;;12.68
78905;BMP280;68291;49.602;8.722;2023-05-19T03:09:12;100152.38;;;12.61
78905;BMP280;68291;49.602;8.722;2023-05-19T03:12:14;100158.69;;;12.54
78905;BMP280;68291;49.602;8.722;2023-05-19T03:15:06;100161.56;;;12.48
78905;BMP280;68291;49.602;8.722;2023-05-19T03:17:39;100161.91;;;12.39
78905;BMP280;68291;49.602;8.722;2023-05-19T03:20:28;100157.88;;;12.33
78905;BMP280;68291;49.602;8.722;2023-05-19T03:23:01;100158.69;;;12.34
78905;BMP280;68291;49.602;8.722;2023-05-19T03:25:48;100162.06;;;12.36
78905;BMP280;68291;49.602;8.722;2023-05-19T03:28:20;100155.91;;;12.38
78905;BMP280;68291;49.602;8.722;2023-05-19T03:31:05;100161.22;;;12.35
78905;BMP280;68291;49.602;8.722;2023-05-19T03:33:43;100153.53;;;12.34
78905;BMP280;68291;49.602;8.722;2023-05-19T03:36:26;100159.41;;;12.37
78905;BMP280;68291;49.602;8.722;2023-05-19T03:39:20;100155.09;;;12.38
78905;BMP280;68291;49.602;8.722;2023-05-19T03:42:00;100157.66;;;12.38
78905;BMP280;68291;49.602;8.722;2023-05-19T03:45:06;100161.75;;;12.43
78905;BMP280;68291;49.602;8.722;2023-05-19T03:47:58;100160.88;;;12.43
78905;BMP280;68291;49.602;8.722;2023-05-19T03:51:00;100165.16;;;12.44
78905;BMP280;68291;49.602;8.722;2023-05-19T03:53:47;100168.38;;;12.49
78905;BMP280;68291;49.602;8.722;2023-05-19T03:56:19;100166.72;;;12.48
78905;BMP280;68291;49.602;8.722;2023-05-19T03:59:10;100177.03;;;12.48
78905;BMP280;68291;49.602;8.722;2023-05-19T04:02:15;100173.78;;;12.43
78905;BMP280;68291;49.602;8.722;2023-05-19T04:05:06;100180.91;;;12.38
78905;BMP280;68291;49.602;8.722;2023-05-19T04:07:48;100177.56;;;12.36
78905;BMP280;68291;49.602;8.722;2023-05-19T04:10:40;100175.94;;;12.33
78905;BMP280;68291;49.602;8.722;2023-05-19T04:13:22;100176.78;;;12.34
78905;BMP280;68291;49.602;8.722;2023-05-19T04:16:03;100169.81;;;12.36
78905;BMP280;68291;49.602;8.722;2023-05-19T04:18:57;100167.94;;;12.39
78905;BMP280;68291;49.602;8.722;2023-05-19T04:21:44;100173.94;;;12.40
78905;BMP280;68291;49.602;8.722;2023-05-19T04:24:25;100169.59;;;12.40
78905;BMP280;68291;49.602;8.722;2023-05-19T04:27:06;100170.38;;;12.42
78905;BMP280;68291;49.602;8.722;2023-05-19T04:29:46;100171.88;;;12.48
78905;BMP280;68291;49.602;8.722;2023-05-19T04:32:17;100175.09;;;12.53
78905;BMP280;68291;49.602;8.722;2023-05-19T04:35:04;100179.09;;;12.60
78905;BMP280;68291;49.602;8.722;2023-05-19T04:37:37;100179.72;;;12.64
78905;BMP280;68291;49.602;8.722;2023-05-19T04:40:22;100182.97;;;12.69
78905;BMP280;68291;49.602;8.722;2023-05-19T04:43:11;100173.22;;;12.76
78905;BMP280;68291;49.602;8.722;2023-05-19T04:45:55;100178.97;;;12.82
78905;BMP280;68291;49.602;8.722;2023-05-19T04:48:36;100177.78;;;12.89
78905;BMP280;68291;49.602;8.722;2023-05-19T04:51:27;100186.13;;;12.96
78905;BMP280;68291;49.602;8.722;2023-05-19T04:54:17;100179.69;;;13.04
78905;BMP280;68291;49.602;8.722;2023-05-19T04:56:48;100186.22;;;13.12
78905;BMP280;68291;49.602;8.722;2023-05-19T04:59:22;100179.03;;;13.19
78905;BMP280;68291;49.602;8.722;2023-05-19T05:02:06;100182.22;;;13.24
78905;BMP280;68291;49.602;8.722;2023-05-19T05:04:39;100180.25;;;13.29
78905;BMP280;68291;49.602;8.722;2023-05-19T05:07:44;100172.16;;;13.36
78905;BMP280;68291;49.602;8.722;2023-05-19T05:10:38;100169.38;;;13.40
78905;BMP280;68291;49.602;8.722;2023-05-19T05:13:20;100174.09;;;13.49
78905;BMP280;68291;49.602;8.722;2023-05-19T05:15:54;100172.13;;;13.54
78905;BMP280;68291;49.602;8.722;2023-05-19T05:18:38;100177.03;;;13.60
78905;BMP280;68291;49.602;8.722;2023-05-19T05:21:19;100172.34;;;13.68
78905;BMP280;68291;49.602;8.722;2023-05-19T05:24:29;100169.00;;;13.83
78905;BMP280;68291;49.602;8.722;2023-05-19T05:27:04;100165.88;;;13.93
78905;BMP280;68291;49.602;8.722;2023-05-19T05:30:00;100170.66;;;14.02
78905;BMP280;68291;49.602;8.722;2023-05-19T05:32:32;100167.69;;;14.09
78905;BMP280;68291;49.602;8.722;2023-05-19T05:35:09;100167.19;;;14.20
78905;BMP280;68291;49.602;8.722;2023-05-19T05:38:04;100171.81;;;14.30
78905;BMP280;68291;49.602;8.722;2023-05-19T05:40:56;100172.97;;;14.41
78905;BMP280;68291;49.602;8.722;2023-05-19T05:43:40;100166.31;;;14.53
78905;BMP280;68291;49.602;8.722;2023-05-19T05:46:34;100147.09;;;14.57
78905;BMP280;68291;49.602;8.722;2023-05-19T05:49:20;100155.75;;;14.72
78905;BMP280;68291;49.602;8.722;2023-05-19T05:52:11;100170.81;;;14.81
78905;BMP280;68291;49.602;8.722;2023-05-19T05:54:47;100166.84;;;14.91
78905;BMP280;68291;49.602;8.722;2023-05-19T05:57:35;100160.28;;;15.01
78905;BMP280;68291;49.602;8.722;2023-05-19T06:00:09;100168.63;;;15.06
78905;BMP280;68291;49.602;8.722;2023-05-19T06:02:53;100167.81;;;15.06
78905;BMP280;68291;49.602;8.722;2023-05-19T06:05:31;100165.97;;;15.07
78905;BMP280;68291;49.602;8.722;2023-05-19T06:08:27;100165.59;;;15.15
78905;BMP280;68291;49.602;8.722;2023-05-19T06:10:59;100156.28;;;15.26
78905;BMP280;68291;49.602;8.722;2023-05-19T06:13:54;100154.81;;;15.38
78905;BMP280;68291;49.602;8.722;2023-05-19T06:17:05;100156.91;;;15.46
78905;BMP280;68291;49.602;8.722;2023-05-19T06:19:56;100157.28;;;15.54
78905;BMP280;68291;49.602;8.722;2023-05-19T06:22:37;100158.66;;;15.61
78905;BMP280;68291;49.602;8.722;2023-05-19T06:25:10;100152.53;;;15.62
78905;BMP280;68291;49.602;8.722;2023-05-19T06:27:57;100158.91;;;15.72
78905;BMP280;68291;49.602;8.722;2023-05-19T06:30:50;100153.84;;;15.84
78905;BMP280;68291;49.602;8.722;2023-05-19T06:33:48;100152.13;;;15.99
78905;BMP280;68291;49.602;8.722;2023-05-19T06:36:34;100146.22;;;16.10
78905;BMP280;68291;49.602;8.722;2023-05-19T06:39:16;100152.53;;;16.22
78905;BMP280;68291;49.602;8.722;2023-05-19T06:42:07;100156.34;;;16.30
78905;BMP280;68291;49.602;8.722;2023-05-19T06:45:16;100153.22;;;16.39
78905;BMP280;68291;49.602;8.722;2023-05-19T06:48:07;100163.81;;;16.50
78905;BMP280;68291;49.602;8.722;2023-05-19T06:50:54;100155.66;;;16.56
78905;BMP280;68291;49.602;8.722;2023-05-19T06:53:32;100154.44;;;16.61
78905;BMP280;68291;49.602;8.722;2023-05-19T06:56:25;100153.16;;;16.68
78905;BMP280;68291;49.602;8.722;2023-05-19T06:59:04;100146.69;;;16.75
78905;BMP280;68291;49.602;8.722;2023-05-19T07:01:38;100145.44;;;16.80
78905;BMP280;68291;49.602;8.722;2023-05-19T07:04:55;100152.69;;;16.89
78905;BMP280;68291;49.602;8.722;2023-05-19T07:07:37;100154.19;;;16.93
78905;BMP280;68291;49.602;8.722;2023-05-19T07:10:32;100150.47;;;16.97
78905;BMP280;68291;49.602;8.722;2023-05-19T07:13:28;100144.16;;;17.01
78905;BMP280;68291;49.602;8.722;2023-05-19T07:16:06;100130.03;;;17.05
78905;BMP280;68291;49.602;8.722;2023-05-19T07:18:36;100131.50;;;17.09
78905;BMP280;68291;49.602;8.722;2023-05-19T07:21:25;100127.63;;;17.16
78905;BMP280;68291;49.602;8.722;2023-05-19T07:24:18;100123.88;;;17.20
78905;BMP280;68291;49.602;8.722;2023-05-19T07:27:14;100118.50;;;17.23
78905;BMP280;68291;49.602;8.722;2023-05-19T07:30:07;100112.19;;;17.27
78905;BMP280;68291;49.602;8.722;2023-05-19T07:32:57;100107.72;;;17.29
78905;BMP280;68291;49.602;8.722;2023-05-19T07:35:39;100108.44;;;17.31
78905;BMP280;68291;49.602;8.722;2023-05-19T07:38:36;100101.56;;;17.30
78905;BMP280;68291;49.602;8.722;2023-05-19T07:41:17;100096.06;;;17.34
78905;BMP280;68291;49.602;8.722;2023-05-19T07:44:06;100088.78;;;17.39
78905;BMP280;68291;49.602;8.722;2023-05-19T07:46:46;100092.56;;;17.48
78905;BMP280;68291;49.602;8.722;2023-05-19T07:49:32;100096.34;;;17.56
78905;BMP280;68291;49.602;8.722;2023-05-19T07:52:12;100084.53;;;17.64
78905;BMP280;68291;49.602;8.722;2023-05-19T07:54:54;100082.13;;;17.74
78905;BMP280;68291;49.602;8.722;2023-05-19T07:57:40;100080.53;;;17.85
78905;BMP280;68291;49.602;8.722;2023-05-19T08:00:36;100084.00;;;17.98
78905;BMP280;68291;49.602;8.722;2023-05-19T08:03:29;100079.44;;;18.14
78905;BMP280;68291;49.602;8.722;2023-05-19T08:06:11;100076.56;;;18.30
78905;BMP280;68291;49.602;8.722;2023-05-19T08:09:09;100085.94;;;18.45
78905;BMP280;68291;49.602;8.722;2023-05-19T08:12:09;100081.75;;;18.55
78905;BMP280;68291;49.602;8.722;2023-05-19T08:15:00;100069.13;;;18.61
78905;BMP280;68291;49.602;8.722;2023-05-19T08:17:44;100072.56;;;18.74
78905;BMP280;68291;49.602;8.722;2023-05-19T08:20:36;100077.44;;;18.79
78905;BMP280;68291;49.602;8.722;2023-05-19T08:23:12;100070.16;;;18.84
78905;BMP280;68291;49.602;8.722;2023-05-19T08:25:44;100081.84;;;18.90
78905;BMP280;68291;49.602;8.722;2023-05-19T08:28:30;100071.81;;;18.97
78905;BMP280;68291;49.602;8.722;2023-05-19T08:31:01;100066.88;;;19.05
78905;BMP280;68291;49.602;8.722;2023-05-19T08:33:46;100079.41;;;19.12
78905;BMP280;68291;49.602;8.722;2023-05-19T08:36:36;100074.91;;;19.14
78905;BMP280;68291;49.602;8.722;2023-05-19T08:39:31;100077.03;;;19.09
78905;BMP280;68291;49.602;8.722;2023-05-19T08:42:04;100072.97;;;19.05
78905;BMP280;68291;49.602;8.722;2023-05-19T08:45:17;100072.00;;;19.06
78905;BMP280;68291;49.602;8.722;2023-05-19T08:48:17;100065.84;;;19.07
78905;BMP280;68291;49.602;8.722;2023-05-19T08:51:16;100061.03;;;19.14
78905;BMP280;68291;49.602;8.722;2023-05-19T08:53:59;100058.09;;;19.18
78905;BMP280;68291;49.602;8.722;2023-05-19T08:56:34;100053.25;;;19.24
78905;BMP280;68291;49.602;8.722;2023-05-19T08:59:20;100042.53;;;19.40
78905;BMP280;68291;49.602;8.722;2023-05-19T09:02:14;100038.56;;;19.57
78905;BMP280;68291;49.602;8.722;2023-05-19T09:04:50;100036.50;;;19.73
78905;BMP280;68291;49.602;8.722;2023-05-19T09:07:40;100030.16;;;19.88
78905;BMP280;68291;49.602;8.722;2023-05-19T09:10:30;100031.16;;;19.98
78905;BMP280;68291;49.602;8.722;2023-05-19T09:13:05;100037.13;;;20.11
78905;BMP280;68291;49.602;8.722;2023-05-19T09:15:57;100042.84;;;20.26
78905;BMP280;68291;49.602;8.722;2023-05-19T09:18:53;100032.03;;;20.42
78905;BMP280;68291;49.602;8.722;2023-05-19T09:21:44;100024.69;;;20.58
78905;BMP280;68291;49.602;8.722;2023-05-19T09:24:41;100027.44;;;20.78
78905;BMP280;68291;49.602;8.722;2023-05-19T09:27:31;100024.34;;;20.94
78905;BMP280;68291;49.602;8.722;2023-05-19T09:30:12;100021.78;;;21.15
78905;BMP280;68291;49.602;8.722;2023-05-19T09:33:09;100021.25;;;21.31
78905;BMP280;68291;49.602;8.722;2023-05-19T09:35:53;100010.78;;;21.42
78905;BMP280;68291;49.602;8.722;2023-05-19T09:38:41;100019.19;;;21.57
78905;BMP280;68291;49.602;8.722;2023-05-19T09:41:21;100017.72;;;21.63
78905;BMP280;68291;49.602;8.722;2023-05-19T09:43:55;100010.88;;;21.72
78905;BMP280;68291;49.602;8.722;2023-05-19T09:46:53;100014.28;;;21.83
78905;BMP280;68291;49.602;8.722;2023-05-19T09:49:47;100016.59;;;21.97
78905;BMP280;68291;49.602;8.722;2023-05-19T09:52:35;100007.56;;;22.10
78905;BMP280;68291;49.602;8.722;2023-05-19T09:55:13;100004.63;;;22.24
78905;BMP280;68291;49.602;8.722;2023-05-19T09:57:59;100011.59;;;22.34
78905;BMP280;68291;49.602;8.722;2023-05-19T10:00:37;100003.59;;;22.36
78905;BMP280;68291;49.602;8.722;2023-05-19T10:03:19;100004.59;;;22.44
78905;BMP280;68291;49.602;8.722;2023-05-19T10:06:15;100007.22;;;22.44
78905;BMP280;68291;49.602;8.722;2023-05-19T10:09:14;100001.97;;;22.44
78905;BMP280;68291;49.602;8.722;2023-05-19T10:12:10;99999.28;;;22.65
78905;BMP280;68291;49.602;8.722;2023-05-19T10:14:49;99989.25;;;22.79
78905;BMP280;68291;49.602;8.722;2023-05-19T10:17:35;99982.94;;;22.91
78905;BMP280;68291;49.602;8.722;2023-05-19T10:20:29;99979.78;;;22.97
78905;BMP280;68291;49.602;8.722;2023-05-19T10:23:19;99986.00;;;22.96
78905;BMP280;68291;49.602;8.722;2023-05-19T10:26:29;99978.69;;;22.90
78905;BMP280;68291;49.602;8.722;2023-05-19T10:29:05;99972.44;;;22.91
78905;BMP280;68291;49.602;8.722;2023-05-19T10:31:49;99974.66;;;22.95
78905;BMP280;68291;49.602;8.722;2023-05-19T10:34:58;99972.59;;;22.99
78905;BMP280;68291;49.602;8.722;2023-05-19T10:37:52;99967.94;;;23.11
78905;BMP280;68291;49.602;8.722;2023-05-19T10:40:32;99970.16;;;23.25
78905;BMP280;68291;49.602;8.722;2023-05-19T10:43:50;99972.78;;;23.25
78905;BMP280;68291;49.602;8.722;2023-05-19T10:46:30;99971.94;;;23.15
78905;BMP280;68291;49.602;8.722;2023-05-19T10:49:21;99972.19;;;23.12
78905;BMP280;68291;49.602;8.722;2023-05-19T10:52:19;99973.06;;;23.13
78905;BMP280;68291;49.602;8.722;2023-05-19T10:54:54;99966.97;;;23.22
78905;BMP280;68291;49.602;8.722;2023-05-19T10:57:56;99977.63;;;23.39
78905;BMP280;68291;49.602;8.722;2023-05-19T11:00:31;99979.28;;;23.49
78905;BMP280;68291;49.602;8.722;2023-05-19T11:03:14;99977.22;;;23.62
78905;BMP280;68291;49.602;8.722;2023-05-19T11:06:26;99975.44;;;23.63
78905;BMP280;68291;49.602;8.722;2023-05-19T11:09:12;99976.41;;;23.62
78905;BMP280;68291;49.602;8.722;2023-05-19T11:12:03;99975.56;;;23.80
78905;BMP280;68291;49.602;8.722;2023-05-19T11:14:54;99969.00;;;24.03
78905;BMP280;68291;49.602;8.722;2023-05-19T11:18:01;99951.53;;;24.20
78905;BMP280;68291;49.602;8.722;2023-05-19T11:20:39;99945.16;;;24.23
78905;BMP280;68291;49.602;8.722;2023-05-19T11:23:25;99942.22;;;24.26
78905;BMP280;68291;49.602;8.722;2023-05-19T11:26:12;99942.03;;;24.37
78905;BMP280;68291;49.602;8.722;2023-05-19T11:29:12;99937.81;;;24.53
78905;BMP280;68291;49.602;8.722;2023-05-19T11:32:08;99934.25;;;24.71
78905;BMP280;68291;49.602;8.722;2023-05-19T11:34:51;99940.41;;;24.89
78905;BMP280;68291;49.602;8.722;2023-05-19T11:37:53;99937.09;;;24.87
78905;BMP280;68291;49.602;8.722;2023-05-19T11:40:43;99929.19;;;24.60
78905;BMP280;68291;49.602;8.722;2023-05-19T11:43:15;99932.56;;;24.53
78905;BMP280;68291;49.602;8.722;2023-05-19T11:46:12;99933.38;;;24.53
78905;BMP280;68291;49.602;8.722;2023-05-19T11:48:52;99923.16;;;24.50
78905;BMP280;68291;49.602;8.722;2023-05-19T11:51:48;99925.44;;;24.36
78905;BMP280;68291;49.602;8.722;2023-05-19T11:54:30;99924.84;;;24.42
78905;BMP280;68291;49.602;8.722;2023-05-19T11:57:08;99922.75;;;24.45
78905;BMP280;68291;49.602;8.722;2023-05-19T11:59:49;99918.97;;;24.48
78905;BMP280;68291;49.602;8.722;2023-05-19T12:02:38;99916.94;;;24.69
78905;BMP280;68291;49.602;8.722;2023-05-19T12:05:27;99918.06;;;24.93
78905;BMP280;68291;49.602;8.722;2023-05-19T12:08:26;99913.56;;;25.20
78905;BMP280;68291;49.602;8.722;2023-05-19T12:11:05;99920.19;;;25.41
78905;BMP280;68291;49.602;8.722;2023-05-19T12:13:45;99919.19;;;25.59
78905;BMP280;68291;49.602;8.722;2023-05-19T12:16:31;99911.56;;;25.74
78905;BMP280;68291;49.602;8.722;2023-05-19T12:19:15;99920.00;;;25.77
78905;BMP280;68291;49.602;8.722;2023-05-19T12:22:12;99918.13;;;25.70
78905;BMP280;68291;49.602;8.722;2023-05-19T12:25:14;99911.63;;;25.81
78905;BMP280;68291;49.602;8.722;2023-05-19T12:27:57;99925.38;;;25.93
78905;BMP280;68291;49.602;8.722;2023-05-19T12:30:39;99920.44;;;25.98
78905;BMP280;68291;49.602;8.722;2023-05-19T12:33:14;99920.59;;;25.96
78905;BMP280;68291;49.602;8.722;2023-05-19T12:36:09;99915.78;;;25.92
78905;BMP280;68291;49.602;8.722;2023-05-19T12:39:00;99921.78;;;25.77
78905;BMP280;68291;49.602;8.722;2023-05-19T12:42:10;99921.34;;;25.46
78905;BMP280;68291;49.602;8.722;2023-05-19T12:44:58;99924.78;;;25.39
78905;BMP280;68291;49.602;8.722;2023-05-19T12:47:38;99919.13;;;25.34
78905;BMP280;68291;49.602;8.722;2023-05-19T12:50:10;99914.75;;;25.25
78905;BMP280;68291;49.602;8.722;2023-05-19T12:53:01;99918.91;;;25.28
78905;BMP280;68291;49.602;8.722;2023-05-19T12:55:40;99920.00;;;25.25
78905;BMP280;68291;49.602;8.722;2023-05-19T12:58:33;99930.09;;;25.12
78905;BMP280;68291;49.602;8.722;2023-05-19T13:01:19;99925.81;;;24.94
78905;BMP280;68291;49.602;8.722;2023-05-19T13:03:54;99920.88;;;24.82
78905;BMP280;68291;49.602;8.722;2023-05-19T13:06:34;99919.50;;;24.78
78905;BMP280;68291;49.602;8.722;2023-05-19T13:09:07;99923.81;;;24.79
78905;BMP280;68291;49.602;8.722;2023-05-19T13:11:47;99920.19;;;24.89
78905;BMP280;68291;49.602;8.722;2023-05-19T13:14:31;99916.66;;;25.15
78905;BMP280;68291;49.602;8.722;2023-05-19T13:17:14;99922.41;;;25.36
78905;BMP280;68291;49.602;8.722;2023-05-19T13:19:50;99913.66;;;25.53
78905;BMP280;68291;49.602;8.722;2023-05-19T13:22:34;99905.59;;;25.72
78905;BMP280;68291;49.602;8.722;2023-05-19T13:25:15;99907.41;;;25.96
78905;BMP280;68291;49.602;8.722;2023-05-19T13:28:07;99899.25;;;26.40
78905;BMP280;68291;49.602;8.722;2023-05-19T13:31:14;99904.56;;;26.89
78905;BMP280;68291;49.602;8.722;2023-05-19T13:34:07;99902.97;;;27.27
78905;BMP280;68291;49.602;8.722;2023-05-19T13:36:39;99903.66;;;27.69
78905;BMP280;68291;49.602;8.722;2023-05-19T13:39:21;99912.03;;;28.12
78905;BMP280;68291;49.602;8.722;2023-05-19T13:42:13;99904.81;;;28.36
78905;BMP280;68291;49.602;8.722;2023-05-19T13:44:47;99903.78;;;28.45
78905;BMP280;68291;49.602;8.722;2023-05-19T13:47:45;99903.75;;;28.60
78905;BMP280;68291;49.602;8.722;2023-05-19T13:50:38;99897.09;;;28.64
78905;BMP280;68291;49.602;8.722;2023-05-19T13:53:34;99899.72;;;28.72
78905;BMP280;68291;49.602;8.722;2023-05-19T13:56:36;99902.41;;;28.64
78905;BMP280;68291;49.602;8.722;2023-05-19T13:59:26;99895.78;;;28.60
78905;BMP280;68291;49.602;8.722;2023-05-19T14:02:00;99895.97;;;28.59
78905;BMP280;68291;49.602;8.722;2023-05-19T14:04:57;99897.59;;;28.68
78905;BMP280;68291;49.602;8.722;2023-05-19T14:07:42;99895.19;;;28.81
78905;BMP280;68291;49.602;8.722;2023-05-19T14:10:26;99879.75;;;28.84
78905;BMP280;68291;49.602;8.722;2023-05-19T14:13:13;99892.59;;;28.73
78905;BMP280;68291;49.602;8.722;2023-05-19T14:16:02;99891.34;;;28.53
78905;BMP280;68291;49.602;8.722;2023-05-19T14:18:58;99883.34;;;28.23
78905;BMP280;68291;49.602;8.722;2023-05-19T14:22:07;99886.41;;;27.96
78905;BMP280;68291;49.602;8.722;2023-05-19T14:24:43;99885.78;;;27.71
78905;BMP280;68291;49.602;8.722;2023-05-19T14:27:28;99891.72;;;27.33
78905;BMP280;68291;49.602;8.722;2023-05-19T14:30:08;99880.44;;;26.92
78905;BMP280;68291;49.602;8.722;2023-05-19T14:32:51;99890.25;;;26.66
78905;BMP280;68291;49.602;8.722;2023-05-19T14:35:48;99889.66;;;26.31
78905;BMP280;68291;49.602;8.722;2023-05-19T14:38:38;99896.28;;;26.10
78905;BMP280;68291;49.602;8.722;2023-05-19T14:41:21;99890.88;;;25.86
78905;BMP280;68291;49.602;8.722;2023-05-19T14:44:13;99886.38;;;25.62
78905;BMP280;68291;49.602;8.722;2023-05-19T14:46:59;99872.75;;;25.49
78905;BMP280;68291;49.602;8.722;2023-05-19T14:49:57;99873.06;;;25.46
78905;BMP280;68291;49.602;8.722;2023-05-19T14:52:42;99870.06;;;25.41
78905;BMP280;68291;49.602;8.722;2023-05-19T14:55:25;99874.59;;;25.31
78905;BMP280;68291;49.602;8.722;2023-05-19T14:58:10;99876.19;;;25.24
78905;BMP280;68291;49.602;8.722;2023-05-19T15:01:07;99878.06;;;25.14
78905;BMP280;68291;49.602;8.722;2023-05-19T15:03:57;99873.25;;;24.93
78905;BMP280;68291;49.602;8.722;2023-05-19T15:06:53;99872.59;;;24.64
78905;BMP280;68291;49.602;8.722;2023-05-19T15:09:53;99871.00;;;24.54
78905;BMP280;68291;49.602;8.722;2023-05-19T15:12:49;99870.97;;;24.37
78905;BMP280;68291;49.602;8.722;2023-05-19T15:15:32;99863.94;;;24.28
78905;BMP280;68291;49.602;8.722;2023-05-19T15:18:12;99861.69;;;24.33
78905;BMP280;68291;49.602;8.722;2023-05-19T15:20:54;99869.41;;;24.43
78905;BMP280;68291;49.602;8.722;2023-05-19T15:23:44;99874.06;;;24.49
78905;BMP280;68291;49.602;8.722;2023-05-19T15:26:47;99866.28;;;24.57
78905;BMP280;68291;49.602;8.722;2023-05-19T15:29:32;99872.72;;;24.45
78905;BMP280;68291;49.602;8.722;2023-05-19T15:32:27;99865.91;;;24.26
78905;BMP280;68291;49.602;8.722;2023-05-19T15:35:10;99866.44;;;24.20
78905;BMP280;68291;49.602;8.722;2023-05-19T15:38:05;99859.53;;;24.19
78905;BMP280;68291;49.602;8.722;2023-05-19T15:40:42;99862.03;;;24.20
78905;BMP280;68291;49.602;8.722;2023-05-19T15:43:33;99852.31;;;24.21
78905;BMP280;68291;49.602;8.722;2023-05-19T15:46:31;99862.56;;;24.33
78905;BMP280;68291;49.602;8.722;2023-05-19T15:49:17;99860.13;;;24.40
78905;BMP280;68291;49.602;8.722;2023-05-19T15:51:57;99852.09;;;24.41
78905;BMP280;68291;49.602;8.722;2023-05-19T15:54:43;99849.31;;;24.42
78905;BMP280;68291;49.602;8.722;2023-05-19T15:57:23;99858.41;;;24.48
78905;BMP280;68291;49.602;8.722;2023-05-19T16:00:14;99851.28;;;24.58